PWSweather.com
Personal Weather Stations
Station Observations
DW1039
Liberty & Fairfield Townships, Hamilton, OH 45011

Liberty & Fairfield TownshipsHamilton, OH 45011

Lat: 39.3933, Lon: -84.477

Elevation: 780

Station Type: Davis Vantage Pro2 (Daytime Fan Aspirated)

http://www.lfweathercenter.com/

Latest ConditionsUpdated 10:00:13 AM EST Wednesday, Feb 10, 2016
Currently Today's Max Today's Min Today's Average
Temperature 16.4°F-8.7°C 16.4°F-8.7°C 13.2°F-10.4°C 15.0°F-9.4°C
Dew Point 11.6°F-11.3°C 12.2°F-11.0°C 9.1°F-12.7°C 10.8°F-11.8°C
Winds 9.0 mph W14.5 kmh W 11.0 mph WSW17.7 kmh WSW - 5.5 mph 8.9 kmh
Wind Gusts 15.0 mph24.1 kmh 18.0 mph29.0 kmh - -
Humidity 81% 85% 81% 83%
Pressure 30.07 in1018.3 mb 30.07 in1018.3 mb 29.99 in1015.6 mb -
Hour Temp Dew Point Humidity Winds Wind Gusts Pressure Precip Precip Rate Daily Precip Total
10:00 AM 16.4°F-8.7°C 11.6°F-11.3°C 81% 9.0 mph W14.5 kmh W 15.0 mph24.1 kmh 30.07 in1018.3 mb 0.00 in0.0 mm 0.00 in0.0 mm 0.14 in3.6 mm
09:50 AM 16.1°F-8.8°C 11.6°F-11.3°C 82% 7.0 mph WSW11.3 kmh WSW 10.0 mph16.1 kmh 30.07 in1018.3 mb 0.00 in0.0 mm 0.00 in0.0 mm 0.14 in3.6 mm
09:40 AM 15.8°F-9.0°C 11.0°F-11.7°C 81% 7.0 mph WSW11.3 kmh WSW 14.0 mph22.5 kmh 30.07 in1018.3 mb 0.00 in0.0 mm 0.00 in0.0 mm 0.14 in3.6 mm
09:30 AM 15.7°F-9.1°C 11.2°F-11.6°C 82% 5.0 mph WNW8.0 kmh WNW 14.0 mph22.5 kmh 30.07 in1018.3 mb 0.00 in0.0 mm 0.00 in0.0 mm 0.14 in3.6 mm
09:20 AM 15.5°F-9.2°C 11.0°F-11.7°C 82% 6.0 mph W9.7 kmh W 11.0 mph17.7 kmh 30.06 in1017.9 mb 0.00 in0.0 mm 0.00 in0.0 mm 0.14 in3.6 mm
09:10 AM 15.4°F-9.2°C 11.2°F-11.6°C 83% 6.0 mph W9.7 kmh W 16.0 mph25.7 kmh 30.06 in1017.9 mb 0.00 in0.0 mm 0.00 in0.0 mm 0.14 in3.6 mm
09:00 AM 15.3°F-9.3°C 11.1°F-11.6°C 83% 3.0 mph W4.8 kmh W 13.0 mph20.9 kmh 30.06 in1017.9 mb 0.00 in0.0 mm 0.00 in0.0 mm 0.14 in3.6 mm
08:50 AM 15.4°F-9.2°C 11.2°F-11.6°C 83% 2.0 mph W3.2 kmh W 10.0 mph16.1 kmh 30.05 in1017.6 mb 0.00 in0.0 mm 0.00 in0.0 mm 0.14 in3.6 mm
08:40 AM 15.1°F-9.4°C 10.9°F-11.7°C 83% 6.0 mph W9.7 kmh W 15.0 mph24.1 kmh 30.05 in1017.6 mb 0.00 in0.0 mm 0.00 in0.0 mm 0.14 in3.6 mm
08:30 AM 15.0°F-9.4°C 10.8°F-11.8°C 83% 10.0 mph WSW16.1 kmh WSW 17.0 mph27.4 kmh 30.05 in1017.6 mb 0.00 in0.0 mm 0.00 in0.0 mm 0.14 in3.6 mm
08:20 AM 15.2°F-9.3°C 11.0°F-11.7°C 83% 10.0 mph W16.1 kmh W 18.0 mph29.0 kmh 30.05 in1017.6 mb 0.00 in0.0 mm 0.00 in0.0 mm 0.14 in3.6 mm
08:10 AM 15.3°F-9.3°C 11.1°F-11.6°C 83% 6.0 mph WSW9.7 kmh WSW 11.0 mph17.7 kmh 30.04 in1017.3 mb 0.00 in0.0 mm 0.00 in0.0 mm 0.14 in3.6 mm
08:00 AM 15.2°F-9.3°C 11.0°F-11.7°C 83% 8.0 mph W12.9 kmh W 16.0 mph25.7 kmh 30.04 in1017.3 mb 0.00 in0.0 mm 0.00 in0.0 mm 0.14 in3.6 mm
07:50 AM 15.2°F-9.3°C 11.2°F-11.6°C 84% 7.0 mph W11.3 kmh W 10.0 mph16.1 kmh 30.04 in1017.3 mb 0.00 in0.0 mm 0.00 in0.0 mm 0.14 in3.6 mm
07:40 AM 15.2°F-9.3°C 11.2°F-11.6°C 84% 10.0 mph WSW16.1 kmh WSW 11.0 mph17.7 kmh 30.03 in1016.9 mb 0.00 in0.0 mm 0.00 in0.0 mm 0.14 in3.6 mm
07:30 AM 15.2°F-9.3°C 11.0°F-11.7°C 83% 7.0 mph WSW11.3 kmh WSW 14.0 mph22.5 kmh 30.04 in1017.3 mb 0.00 in0.0 mm 0.00 in0.0 mm 0.14 in3.6 mm
07:20 AM 15.4°F-9.2°C 11.2°F-11.6°C 83% 9.0 mph W14.5 kmh W 15.0 mph24.1 kmh 30.03 in1016.9 mb 0.00 in0.0 mm 0.00 in0.0 mm 0.14 in3.6 mm
07:10 AM 15.5°F-9.2°C 11.3°F-11.5°C 83% 4.0 mph WSW6.4 kmh WSW 11.0 mph17.7 kmh 30.03 in1016.9 mb 0.00 in0.0 mm 0.00 in0.0 mm 0.14 in3.6 mm
07:00 AM 15.6°F-9.1°C 11.4°F-11.4°C 83% 4.0 mph N6.4 kmh N 13.0 mph20.9 kmh 30.03 in1016.9 mb 0.00 in0.0 mm 0.00 in0.0 mm 0.14 in3.6 mm
06:50 AM 15.6°F-9.1°C 11.4°F-11.4°C 83% 9.0 mph WSW14.5 kmh WSW 17.0 mph27.4 kmh 30.03 in1016.9 mb 0.00 in0.0 mm 0.00 in0.0 mm 0.14 in3.6 mm
06:40 AM 15.7°F-9.1°C 11.7°F-11.3°C 84% 6.0 mph WSW9.7 kmh WSW 17.0 mph27.4 kmh 30.02 in1016.6 mb 0.00 in0.0 mm 0.00 in0.0 mm 0.14 in3.6 mm
06:30 AM 15.7°F-9.1°C 11.7°F-11.3°C 84% 10.0 mph WSW16.1 kmh WSW 18.0 mph29.0 kmh 30.02 in1016.6 mb 0.00 in0.0 mm 0.00 in0.0 mm 0.14 in3.6 mm
06:20 AM 15.8°F-9.0°C 12.1°F-11.1°C 85% 4.0 mph WSW6.4 kmh WSW 13.0 mph20.9 kmh 30.02 in1016.6 mb 0.00 in0.0 mm 0.00 in0.0 mm 0.14 in3.6 mm
06:10 AM 15.9°F-8.9°C 12.2°F-11.0°C 85% 7.0 mph W11.3 kmh W 10.0 mph16.1 kmh 30.02 in1016.6 mb 0.00 in0.0 mm 0.00 in0.0 mm 0.14 in3.6 mm
06:00 AM 15.9°F-8.9°C 12.2°F-11.0°C 85% 1.0 mph W1.6 kmh W 9.0 mph14.5 kmh 30.02 in1016.6 mb 0.00 in0.0 mm 0.00 in0.0 mm 0.14 in3.6 mm
05:50 AM 15.7°F-9.1°C 12.0°F-11.1°C 85% 7.0 mph WSW11.3 kmh WSW 10.0 mph16.1 kmh 30.02 in1016.6 mb 0.00 in0.0 mm 0.00 in0.0 mm 0.14 in3.6 mm
05:40 AM 15.6°F-9.1°C 11.9°F-11.2°C 85% 7.0 mph W11.3 kmh W 11.0 mph17.7 kmh 30.01 in1016.3 mb 0.00 in0.0 mm 0.00 in0.0 mm 0.14 in3.6 mm
05:30 AM 15.5°F-9.2°C 11.8°F-11.2°C 85% 5.0 mph WSW8.0 kmh WSW 11.0 mph17.7 kmh 30.01 in1016.3 mb 0.00 in0.0 mm 0.00 in0.0 mm 0.14 in3.6 mm
05:20 AM 15.4°F-9.2°C 11.7°F-11.3°C 85% 3.0 mph W4.8 kmh W 7.0 mph11.3 kmh 30.01 in1016.3 mb 0.00 in0.0 mm 0.00 in0.0 mm 0.14 in3.6 mm
05:10 AM 15.4°F-9.2°C 11.7°F-11.3°C 85% 2.0 mph WSW3.2 kmh WSW 7.0 mph11.3 kmh 30.01 in1016.3 mb 0.00 in0.0 mm 0.00 in0.0 mm 0.14 in3.6 mm
05:00 AM 15.4°F-9.2°C 11.7°F-11.3°C 85% 2.0 mph WSW3.2 kmh WSW 10.0 mph16.1 kmh 30.00 in1015.9 mb 0.00 in0.0 mm 0.00 in0.0 mm 0.14 in3.6 mm
04:50 AM 15.3°F-9.3°C 11.3°F-11.5°C 84% 5.0 mph SW8.0 kmh SW 5.0 mph8.0 kmh 30.00 in1015.9 mb 0.00 in0.0 mm 0.00 in0.0 mm 0.14 in3.6 mm
04:40 AM 15.3°F-9.3°C 11.3°F-11.5°C 84% 3.0 mph WSW4.8 kmh WSW 13.0 mph20.9 kmh 30.00 in1015.9 mb 0.00 in0.0 mm 0.00 in0.0 mm 0.14 in3.6 mm
04:30 AM 15.2°F-9.3°C 11.2°F-11.6°C 84% 4.0 mph WSW6.4 kmh WSW 13.0 mph20.9 kmh 30.00 in1015.9 mb 0.00 in0.0 mm 0.00 in0.0 mm 0.14 in3.6 mm
04:20 AM 15.2°F-9.3°C 11.0°F-11.7°C 83% 9.0 mph W14.5 kmh W 13.0 mph20.9 kmh 30.00 in1015.9 mb 0.00 in0.0 mm 0.00 in0.0 mm 0.14 in3.6 mm
04:10 AM 15.1°F-9.4°C 10.9°F-11.7°C 83% 4.0 mph W6.4 kmh W 13.0 mph20.9 kmh 30.00 in1015.9 mb 0.00 in0.0 mm 0.00 in0.0 mm 0.14 in3.6 mm
04:00 AM 15.1°F-9.4°C 10.9°F-11.7°C 83% 5.0 mph WSW8.0 kmh WSW 11.0 mph17.7 kmh 30.00 in1015.9 mb 0.00 in0.0 mm 0.00 in0.0 mm 0.14 in3.6 mm
03:50 AM 15.0°F-9.4°C 10.5°F-11.9°C 82% 3.0 mph WSW4.8 kmh WSW 9.0 mph14.5 kmh 29.99 in1015.6 mb 0.00 in0.0 mm 0.00 in0.0 mm 0.14 in3.6 mm
03:40 AM 14.9°F-9.5°C 10.4°F-12.0°C 82% 5.0 mph SW8.0 kmh SW 10.0 mph16.1 kmh 29.99 in1015.6 mb 0.00 in0.0 mm 0.00 in0.0 mm 0.14 in3.6 mm
03:30 AM 14.8°F-9.6°C 10.3°F-12.1°C 82% 4.0 mph WSW6.4 kmh WSW 12.0 mph19.3 kmh 30.00 in1015.9 mb 0.00 in0.0 mm 0.00 in0.0 mm 0.14 in3.6 mm
03:20 AM 14.7°F-9.6°C 10.2°F-12.1°C 82% 5.0 mph WSW8.0 kmh WSW 9.0 mph14.5 kmh 29.99 in1015.6 mb 0.00 in0.0 mm 0.00 in0.0 mm 0.14 in3.6 mm
03:10 AM 14.5°F-9.7°C 10.0°F-12.2°C 82% 6.0 mph WSW9.7 kmh WSW 10.0 mph16.1 kmh 29.99 in1015.6 mb 0.00 in0.0 mm 0.00 in0.0 mm 0.14 in3.6 mm
03:00 AM 14.3°F-9.8°C 9.8°F-12.3°C 82% 2.0 mph W3.2 kmh W 12.0 mph19.3 kmh 29.99 in1015.6 mb 0.00 in0.0 mm 0.00 in0.0 mm 0.14 in3.6 mm
02:50 AM 14.2°F-9.9°C 9.7°F-12.4°C 82% 3.0 mph WSW4.8 kmh WSW 11.0 mph17.7 kmh 29.99 in1015.6 mb 0.00 in0.0 mm 0.00 in0.0 mm 0.14 in3.6 mm
02:40 AM 14.0°F-10.0°C 9.8°F-12.3°C 83% 9.0 mph WSW14.5 kmh WSW 12.0 mph19.3 kmh 29.99 in1015.6 mb 0.00 in0.0 mm 0.00 in0.0 mm 0.14 in3.6 mm
02:30 AM 13.9°F-10.1°C 9.7°F-12.4°C 83% 9.0 mph WSW14.5 kmh WSW 11.0 mph17.7 kmh 29.99 in1015.6 mb 0.00 in0.0 mm 0.00 in0.0 mm 0.14 in3.6 mm
02:20 AM 13.9°F-10.1°C 9.7°F-12.4°C 83% 11.0 mph WSW17.7 kmh WSW 12.0 mph19.3 kmh 29.99 in1015.6 mb 0.00 in0.0 mm 0.00 in0.0 mm 0.14 in3.6 mm
02:10 AM 13.5°F-10.3°C 9.6°F-12.4°C 84% 2.0 mph WSW3.2 kmh WSW 11.0 mph17.7 kmh 29.99 in1015.6 mb 0.00 in0.0 mm 0.00 in0.0 mm 0.14 in3.6 mm
02:00 AM 13.2°F-10.4°C 9.3°F-12.6°C 84% 2.0 mph W3.2 kmh W 7.0 mph11.3 kmh 29.99 in1015.6 mb 0.00 in0.0 mm 0.00 in0.0 mm 0.14 in3.6 mm
01:50 AM 13.3°F-10.4°C 9.1°F-12.7°C 83% 4.0 mph SW6.4 kmh SW 10.0 mph16.1 kmh 29.99 in1015.6 mb 0.00 in0.0 mm 0.00 in0.0 mm 0.14 in3.6 mm
01:40 AM 13.4°F-10.3°C 9.2°F-12.7°C 83% 3.0 mph WSW4.8 kmh WSW 7.0 mph11.3 kmh 29.99 in1015.6 mb 0.00 in0.0 mm 0.00 in0.0 mm 0.14 in3.6 mm
01:30 AM 13.7°F-10.2°C 9.5°F-12.5°C 83% 1.0 mph WSW1.6 kmh WSW 6.0 mph9.7 kmh 29.99 in1015.6 mb 0.00 in0.0 mm 0.00 in0.0 mm 0.14 in3.6 mm
01:20 AM 13.9°F-10.1°C 9.7°F-12.4°C 83% 4.0 mph WSW6.4 kmh WSW 5.0 mph8.0 kmh 29.99 in1015.6 mb 0.00 in0.0 mm 0.00 in0.0 mm 0.14 in3.6 mm
01:10 AM 14.1°F-9.9°C 9.9°F-12.3°C 83% 3.0 mph WSW4.8 kmh WSW 8.0 mph12.9 kmh 29.99 in1015.6 mb 0.00 in0.0 mm 0.00 in0.0 mm 0.14 in3.6 mm
01:00 AM 14.3°F-9.8°C 10.1°F-12.2°C 83% 6.0 mph WSW9.7 kmh WSW 7.0 mph11.3 kmh 29.99 in1015.6 mb 0.14 in3.6 mm 0.00 in0.0 mm 0.14 in3.6 mm
12:50 AM 14.4°F-9.8°C 9.9°F-12.3°C 82% 8.0 mph W12.9 kmh W 9.0 mph14.5 kmh 29.99 in1015.6 mb 0.14 in3.6 mm 0.00 in0.0 mm 0.14 in3.6 mm
12:40 AM 14.5°F-9.7°C 10.0°F-12.2°C 82% 4.0 mph W6.4 kmh W 11.0 mph17.7 kmh 30.00 in1015.9 mb 0.14 in3.6 mm 0.00 in0.0 mm 0.14 in3.6 mm
12:30 AM 14.7°F-9.6°C 10.2°F-12.1°C 82% 6.0 mph WSW9.7 kmh WSW 10.0 mph16.1 kmh 29.99 in1015.6 mb 0.14 in3.6 mm 0.00 in0.0 mm 0.14 in3.6 mm
12:20 AM 14.9°F-9.5°C 10.1°F-12.2°C 81% 3.0 mph WSW4.8 kmh WSW 10.0 mph16.1 kmh 30.00 in1015.9 mb 0.14 in3.6 mm 0.00 in0.0 mm 0.14 in3.6 mm
12:10 AM 15.2°F-9.3°C 10.4°F-12.0°C 81% 7.0 mph WSW11.3 kmh WSW 10.0 mph16.1 kmh 30.00 in1015.9 mb 0.14 in3.6 mm 0.84 in21.3 mm 0.14 in3.6 mm